| time (UTC) | temp F | wind direction | speed knots | gust knots | rain 1hr in | rain 24hr in | rain mn in | humidity % | barometer mb |
| 20260508235914 | 50 | 180 | 0.0 | 0.0 | 0.00 | 0.00 | 0.00 | 65 | 1012.8 |
| 20260508235404 | 50 | 180 | 0.0 | 0.0 | 0.00 | 0.00 | 0.00 | 64 | 1012.9 |
| 20260508234344 | 51 | 180 | 0.0 | 0.0 | 0.00 | 0.00 | 0.00 | 63 | 1012.5 |
| 20260508233834 | 51 | 180 | 0.0 | 0.0 | 0.00 | 0.00 | 0.00 | 63 | 1012.5 |
| 20260508233323 | 51 | 180 | 0.0 | 0.0 | 0.00 | 0.00 | 0.00 | 62 | 1012.3 |
| 20260508232813 | 51 | 180 | 0.0 | 0.0 | 0.00 | 0.00 | 0.00 | 61 | 1012.5 |
| 20260508232307 | 51 | 180 | 0.0 | 0.0 | 0.00 | 0.00 | 0.00 | 60 | 1012.5 |
| 20260508231754 | 52 | 180 | 0.0 | 0.0 | 0.00 | 0.00 | 0.00 | 58 | 1012.3 |
| 20260508230733 | 53 | 158 | 0.0 | 0.0 | 0.00 | 0.00 | 0.00 | 55 | 1011.9 |
| 20260508230223 | 53 | 158 | 0.0 | 0.0 | 0.00 | 0.00 | 0.00 | 55 | 1011.5 |
| 20260508225714 | 53 | 113 | 0.0 | 0.0 | 0.00 | 0.00 | 0.00 | 57 | 1011.5 |
| 20260508225203 | 53 | 113 | 0.0 | 0.0 | 0.00 | 0.00 | 0.00 | 57 | 1011.6 |
| 20260508224652 | 53 | 90 | 0.0 | 0.0 | 0.00 | 0.00 | 0.00 | 56 | 1011.4 |
| 20260508224143 | 53 | 113 | 0.0 | 0.0 | 0.00 | 0.00 | 0.00 | 55 | 1011.3 |
| 20260508223122 | 53 | 180 | 0.0 | 0.0 | 0.00 | 0.00 | 0.00 | 60 | 1011.3 |
| 20260508222102 | 53 | 180 | 0.0 | 0.0 | 0.00 | 0.00 | 0.00 | 58 | 1011.0 |
| 20260508221552 | 54 | 180 | 0.0 | 0.0 | 0.00 | 0.00 | 0.00 | 57 | 1011.0 |
| 20260508221042 | 54 | 180 | 0.0 | 0.0 | 0.00 | 0.00 | 0.00 | 56 | 1011.0 |
| 20260508220532 | 55 | 180 | 0.0 | 0.0 | 0.00 | 0.00 | 0.00 | 55 | 1010.8 |
| 20260508220022 | 55 | 180 | 0.0 | 0.0 | 0.00 | 0.00 | 0.00 | 55 | 1010.9 |
| 20260508215512 | 56 | 180 | 0.0 | 0.0 | 0.00 | 0.00 | 0.00 | 54 | 1010.8 |
| 20260508215001 | 56 | 180 | 0.0 | 0.0 | 0.00 | 0.00 | 0.00 | 52 | 1010.8 |
| 20260508214452 | 57 | 158 | 0.0 | 0.0 | 0.00 | 0.00 | 0.00 | 49 | 1010.8 |
| 20260508213942 | 57 | 225 | 0.0 | 0.0 | 0.00 | 0.00 | 0.00 | 49 | 1011.0 |
| 20260508213434 | 57 | 180 | 0.0 | 0.0 | 0.00 | 0.00 | 0.00 | 49 | 1010.9 |
| 20260508212921 | 58 | 180 | 0.0 | 0.0 | 0.00 | 0.00 | 0.00 | 49 | 1010.9 |
| 20260508212411 | 59 | 180 | 0.0 | 0.0 | 0.00 | 0.00 | 0.00 | 49 | 1010.9 |
| 20260508211900 | 60 | 203 | 0.0 | 0.0 | 0.00 | 0.00 | 0.00 | 48 | 1010.9 |
| 20260508211350 | 60 | 203 | 0.0 | 0.0 | 0.00 | 0.00 | 0.00 | 45 | 1010.6 |
| 20260508210841 | 61 | 203 | 0.0 | 0.0 | 0.00 | 0.00 | 0.00 | 45 | 1010.7 |
| 20260508210332 | 62 | 203 | 0.0 | 0.0 | 0.00 | 0.00 | 0.00 | 43 | 1010.9 |
| 20260508205821 | 63 | 203 | 0.0 | 0.0 | 0.00 | 0.00 | 0.00 | 41 | 1010.7 |
| 20260508205311 | 64 | 225 | 0.0 | 0.0 | 0.00 | 0.00 | 0.00 | 39 | 1010.6 |
| 20260508204800 | 64 | 225 | 0.0 | 1.7 | 0.00 | 0.00 | 0.00 | 39 | 1010.6 |
| 20260508203740 | 65 | 135 | 0.0 | 1.7 | 0.00 | 0.00 | 0.00 | 37 | 1010.5 |
| 20260508203230 | 65 | 203 | 0.0 | 1.7 | 0.00 | 0.00 | 0.00 | 37 | 1010.7 |
| 20260508202720 | 66 | 248 | 0.0 | 1.7 | 0.00 | 0.00 | 0.00 | 37 | 1010.6 |
| 20260508202209 | 65 | 90 | 0.0 | 1.7 | 0.00 | 0.00 | 0.00 | 35 | 1010.5 |
| 20260508201659 | 66 | 248 | 0.0 | 1.7 | 0.00 | 0.00 | 0.00 | 36 | 1010.6 |
| 20260508201151 | 66 | 225 | 0.0 | 3.5 | 0.00 | 0.00 | 0.00 | 35 | 1010.4 |
| 20260508200640 | 66 | 203 | 0.0 | 3.5 | 0.00 | 0.00 | 0.00 | 35 | 1010.6 |
| 20260508200129 | 66 | 248 | 0.0 | 1.7 | 0.00 | 0.00 | 0.00 | 34 | 1010.4 |
| 20260508195620 | 66 | 248 | 0.0 | 1.7 | 0.00 | 0.00 | 0.00 | 34 | 1010.5 |
| 20260508195110 | 66 | 293 | 0.0 | 1.7 | 0.00 | 0.00 | 0.00 | 33 | 1010.4 |
| 20260508194559 | 66 | 90 | 0.0 | 1.7 | 0.00 | 0.00 | 0.00 | 33 | 1010.4 |
| 20260508194048 | 67 | 248 | 0.0 | 1.7 | 0.00 | 0.00 | 0.00 | 33 | 1010.3 |
| 20260508193538 | 67 | 293 | 0.0 | 1.7 | 0.00 | 0.00 | 0.00 | 34 | 1010.2 |
| 20260508193029 | 66 | 203 | 0.0 | 6.1 | 0.00 | 0.00 | 0.00 | 33 | 1010.2 |
| 20260508192519 | 66 | 158 | 0.9 | 6.1 | 0.00 | 0.00 | 0.00 | 33 | 1010.3 |
| 20260508192008 | 66 | 135 | 0.0 | 3.5 | 0.00 | 0.00 | 0.00 | 32 | 1010.5 |
| 20260508190948 | 68 | 338 | 0.0 | 3.5 | 0.00 | 0.00 | 0.00 | 32 | 1010.6 |
| 20260508185927 | 67 | 113 | 0.0 | 3.5 | 0.00 | 0.00 | 0.00 | 33 | 1010.6 |
| 20260508185418 | 67 | 203 | 0.0 | 3.5 | 0.00 | 0.00 | 0.00 | 33 | 1010.5 |
| 20260508184907 | 66 | 315 | 0.9 | 3.5 | 0.00 | 0.00 | 0.00 | 32 | 1010.7 |
| 20260508184357 | 66 | 225 | 0.0 | 1.7 | 0.00 | 0.00 | 0.00 | 32 | 1010.8 |
| 20260508183336 | 66 | 135 | 0.0 | 3.5 | 0.00 | 0.00 | 0.00 | 32 | 1010.8 |
| 20260508182317 | 71 | 225 | 1.7 | 6.1 | 0.00 | 0.00 | 0.00 | 89 | 1011.1 |
| 20260508181807 | 65 | 158 | 0.0 | 1.7 | 0.00 | 0.00 | 0.00 | 32 | 1011.4 |
| 20260508180746 | 65 | 203 | 0.0 | 1.7 | 0.00 | 0.00 | 0.00 | 31 | 1011.5 |
| 20260508180237 | 65 | 158 | 0.0 | 3.5 | 0.00 | 0.00 | 0.00 | 32 | 1011.5 |
| 20260508175726 | 64 | 203 | 0.9 | 3.5 | 0.00 | 0.00 | 0.00 | 32 | 1011.8 |
| 20260508175216 | 65 | 248 | 0.0 | 3.5 | 0.00 | 0.00 | 0.00 | 33 | 1011.9 |
| 20260508174707 | 64 | 248 | 0.0 | 3.5 | 0.00 | 0.00 | 0.00 | 32 | 1012.0 |
| 20260508174158 | 64 | 225 | 0.0 | 3.5 | 0.00 | 0.00 | 0.00 | 32 | 1012.2 |
| 20260508173646 | 64 | 248 | 0.0 | 5.2 | 0.00 | 0.00 | 0.00 | 31 | 1012.2 |
| 20260508173137 | 64 | 225 | 0.0 | 5.2 | 0.00 | 0.00 | 0.00 | 31 | 1012.4 |
| 20260508172116 | 63 | 203 | 0.0 | 5.2 | 0.00 | 0.00 | 0.00 | 32 | 1012.4 |
| 20260508171606 | 64 | 180 | 0.0 | 3.5 | 0.00 | 0.00 | 0.00 | 31 | 1012.5 |
| 20260508171055 | 63 | 293 | 0.0 | 3.5 | 0.00 | 0.00 | 0.00 | 31 | 1012.8 |
| 20260508170545 | 63 | 270 | 0.0 | 1.7 | 0.00 | 0.00 | 0.00 | 31 | 1012.9 |
| 20260508170035 | 62 | 225 | 0.0 | 1.7 | 0.00 | 0.00 | 0.00 | 30 | 1013.2 |
| 20260508165525 | 63 | 203 | 0.0 | 6.1 | 0.00 | 0.00 | 0.00 | 30 | 1013.2 |
| 20260508165015 | 64 | 248 | 0.0 | 6.1 | 0.00 | 0.00 | 0.00 | 29 | 1013.4 |
| 20260508164506 | 63 | 180 | 0.0 | 3.5 | 0.00 | 0.00 | 0.00 | 28 | 1013.8 |
| 20260508163445 | 62 | 225 | 0.0 | 7.8 | 0.00 | 0.00 | 0.00 | 28 | 1013.9 |
| 20260508162934 | 62 | 270 | 0.0 | 7.8 | 0.00 | 0.00 | 0.00 | 29 | 1014.0 |
| 20260508162425 | 61 | 0 | 0.9 | 6.1 | 0.00 | 0.00 | 0.00 | 28 | 1014.0 |
| 20260508161914 | 62 | 248 | 0.0 | 3.5 | 0.00 | 0.00 | 0.00 | 28 | 1014.2 |
| 20260508161404 | 62 | 180 | 0.0 | 3.5 | 0.00 | 0.00 | 0.00 | 27 | 1014.1 |
| 20260508160854 | 62 | 45 | 0.0 | 3.5 | 0.00 | 0.00 | 0.00 | 27 | 1014.4 |
| 20260508160344 | 62 | 180 | 0.0 | 7.8 | 0.00 | 0.00 | 0.00 | 27 | 1014.3 |
| 20260508155833 | 61 | 225 | 0.0 | 7.8 | 0.00 | 0.00 | 0.00 | 27 | 1014.4 |
| 20260508155324 | 62 | 248 | 0.0 | 3.5 | 0.00 | 0.00 | 0.00 | 26 | 1014.7 |
| 20260508154814 | 62 | 315 | 0.0 | 3.5 | 0.00 | 0.00 | 0.00 | 28 | 1014.6 |
| 20260508154303 | 61 | 225 | 0.0 | 3.5 | 0.00 | 0.00 | 0.00 | 27 | 1014.8 |
| 20260508153754 | 62 | 225 | 0.0 | 3.5 | 0.00 | 0.00 | 0.00 | 28 | 1014.7 |
| 20260508153244 | 61 | 293 | 0.0 | 1.7 | 0.00 | 0.00 | 0.00 | 29 | 1014.6 |
| 20260508152223 | 60 | 180 | 0.0 | 3.5 | 0.00 | 0.00 | 0.00 | 28 | 1014.5 |
| 20260508151203 | 60 | 135 | 0.0 | 3.5 | 0.00 | 0.00 | 0.00 | 29 | 1014.9 |
| 20260508150653 | 59 | 180 | 0.0 | 6.1 | 0.00 | 0.00 | 0.00 | 29 | 1014.9 |
| 20260508150142 | 60 | 270 | 0.0 | 6.1 | 0.00 | 0.00 | 0.00 | 29 | 1014.9 |
| 20260508145632 | 59 | 248 | 0.0 | 6.1 | 0.00 | 0.00 | 0.00 | 29 | 1015.0 |
| 20260508145123 | 59 | 180 | 0.0 | 3.5 | 0.00 | 0.00 | 0.00 | 30 | 1014.8 |
| 20260508144612 | 60 | 248 | 0.0 | 3.5 | 0.00 | 0.00 | 0.00 | 31 | 1014.9 |
| 20260508144102 | 59 | 248 | 0.0 | 9.6 | 0.00 | 0.00 | 0.00 | 30 | 1015.0 |
| 20260508142532 | 58 | 203 | 0.0 | 1.7 | 0.00 | 0.00 | 0.00 | 33 | 1015.0 |
| 20260508142022 | 58 | 203 | 0.0 | 6.1 | 0.00 | 0.00 | 0.00 | 32 | 1015.0 |
| 20260508141513 | 58 | 203 | 0.0 | 6.1 | 0.00 | 0.00 | 0.00 | 34 | 1015.2 |
| 20260508141002 | 57 | 158 | 0.0 | 3.5 | 0.00 | 0.00 | 0.00 | 36 | 1015.3 |
| 20260508140451 | 56 | 203 | 0.0 | 3.5 | 0.00 | 0.00 | 0.00 | 38 | 1015.4 |
| 20260508135941 | 56 | 248 | 0.9 | 5.2 | 0.00 | 0.00 | 0.00 | 38 | 1015.3 |
| 20260508135430 | 56 | 180 | 0.0 | 5.2 | 0.00 | 0.00 | 0.00 | 39 | 1015.3 |
| 20260508134922 | 55 | 203 | 0.0 | 1.7 | 0.00 | 0.00 | 0.00 | 40 | 1015.4 |
| 20260508134411 | 56 | 203 | 0.0 | 3.5 | 0.00 | 0.00 | 0.00 | 40 | 1015.2 |
| 20260508133901 | 55 | 315 | 0.9 | 3.5 | 0.00 | 0.00 | 0.00 | 40 | 1015.4 |
| 20260508133350 | 55 | 203 | 0.0 | 3.5 | 0.00 | 0.00 | 0.00 | 41 | 1015.4 |
| 20260508132330 | 54 | 248 | 0.0 | 5.2 | 0.00 | 0.00 | 0.00 | 42 | 1015.4 |
| 20260508131821 | 55 | 203 | 0.0 | 1.7 | 0.00 | 0.00 | 0.00 | 42 | 1015.3 |
| 20260508131310 | 54 | 270 | 0.0 | 1.7 | 0.00 | 0.00 | 0.00 | 42 | 1015.5 |
| 20260508130801 | 53 | 203 | 0.0 | 3.5 | 0.00 | 0.00 | 0.00 | 43 | 1015.3 |
| 20260508130250 | 53 | 203 | 0.0 | 3.5 | 0.00 | 0.00 | 0.00 | 43 | 1015.3 |
| 20260508125740 | 53 | 225 | 0.0 | 5.2 | 0.00 | 0.00 | 0.00 | 44 | 1015.3 |
| 20260508124719 | 52 | 248 | 0.0 | 6.1 | 0.00 | 0.00 | 0.00 | 44 | 1015.3 |
| 20260508124208 | 52 | 248 | 0.9 | 6.1 | 0.00 | 0.00 | 0.00 | 44 | 1015.3 |
| 20260508123659 | 52 | 248 | 0.0 | 3.5 | 0.00 | 0.00 | 0.00 | 46 | 1015.1 |
| 20260508123149 | 51 | 180 | 0.0 | 7.8 | 0.00 | 0.00 | 0.00 | 45 | 1015.1 |
| 20260508122639 | 51 | 225 | 0.9 | 7.8 | 0.00 | 0.00 | 0.00 | 47 | 1015.0 |
| 20260508122130 | 50 | 225 | 0.0 | 6.1 | 0.00 | 0.00 | 0.00 | 48 | 1015.0 |
| 20260508121619 | 50 | 270 | 0.0 | 1.7 | 0.00 | 0.00 | 0.00 | 50 | 1014.9 |
| 20260508121110 | 49 | 248 | 0.0 | 1.7 | 0.00 | 0.00 | 0.00 | 52 | 1015.2 |
| 20260508120559 | 48 | 225 | 0.0 | 1.7 | 0.00 | 0.00 | 0.00 | 54 | 1014.9 |
| 20260508120053 | 47 | 203 | 0.0 | 1.7 | 0.00 | 0.00 | 0.00 | 56 | 1014.9 |
| 20260508115538 | 47 | 203 | 0.0 | 3.5 | 0.00 | 0.00 | 0.00 | 56 | 1014.9 |
| 20260508115028 | 46 | 293 | 0.0 | 3.5 | 0.00 | 0.00 | 0.00 | 56 | 1014.7 |
| 20260508114518 | 46 | 158 | 0.0 | 0.0 | 0.00 | 0.00 | 0.00 | 55 | 1014.8 |
| 20260508113458 | 46 | 180 | 0.0 | 0.0 | 0.00 | 0.00 | 0.00 | 56 | 1014.8 |
| 20260508112948 | 45 | 270 | 0.0 | 0.0 | 0.00 | 0.00 | 0.00 | 57 | 1014.8 |
| 20260508112438 | 45 | 203 | 0.0 | 0.0 | 0.00 | 0.00 | 0.00 | 57 | 1014.6 |
| 20260508111928 | 45 | 248 | 0.0 | 0.0 | 0.00 | 0.00 | 0.00 | 58 | 1014.8 |
| 20260508111417 | 45 | 248 | 0.0 | 0.0 | 0.00 | 0.00 | 0.00 | 57 | 1014.7 |
| 20260508110357 | 45 | 180 | 0.0 | 1.7 | 0.00 | 0.00 | 0.00 | 56 | 1014.5 |
| 20260508105847 | 44 | 248 | 0.0 | 0.0 | 0.00 | 0.00 | 0.00 | 58 | 1014.5 |
| 20260508104827 | 43 | 225 | 0.0 | 0.0 | 0.00 | 0.00 | 0.00 | 59 | 1014.6 |
| 20260508104316 | 43 | 180 | 0.0 | 0.0 | 0.00 | 0.00 | 0.00 | 59 | 1014.6 |
| 20260508103808 | 44 | 270 | 0.0 | 0.0 | 0.00 | 0.00 | 0.00 | 59 | 1014.8 |
| 20260508103256 | 44 | 248 | 0.0 | 0.0 | 0.00 | 0.00 | 0.00 | 59 | 1014.8 |
| 20260508102746 | 44 | 225 | 0.0 | 0.0 | 0.00 | 0.00 | 0.00 | 59 | 1014.6 |
| 20260508102236 | 44 | 203 | 0.0 | 0.0 | 0.00 | 0.00 | 0.00 | 58 | 1014.5 |
| 20260508100155 | 45 | 203 | 0.0 | 0.0 | 0.00 | 0.00 | 0.00 | 56 | 1014.2 |
| 20260508095646 | 45 | 248 | 0.0 | 0.0 | 0.00 | 0.00 | 0.00 | 55 | 1014.2 |
| 20260508095135 | 46 | 293 | 0.0 | 1.7 | 0.00 | 0.00 | 0.00 | 54 | 1014.0 |
| 20260508094622 | 46 | 270 | 0.0 | 1.7 | 0.00 | 0.00 | 0.00 | 54 | 1014.1 |
| 20260508094116 | 46 | 180 | 0.0 | 1.7 | 0.00 | 0.00 | 0.00 | 53 | 1013.9 |
| 20260508093605 | 46 | 0 | 0.0 | 1.7 | 0.00 | 0.00 | 0.00 | 53 | 1013.8 |
| 20260508093055 | 46 | 225 | 0.0 | 1.7 | 0.00 | 0.00 | 0.00 | 54 | 1013.7 |
| 20260508092545 | 46 | 293 | 0.0 | 1.7 | 0.00 | 0.00 | 0.00 | 53 | 1013.8 |
| 20260508092036 | 46 | 248 | 0.0 | 1.7 | 0.00 | 0.00 | 0.00 | 53 | 1013.4 |
| 20260508091525 | 46 | 248 | 0.0 | 1.7 | 0.00 | 0.00 | 0.00 | 54 | 1013.3 |
| 20260508091015 | 46 | 225 | 0.0 | 1.7 | 0.00 | 0.00 | 0.00 | 53 | 1013.4 |
| 20260508090504 | 46 | 225 | 0.0 | 3.5 | 0.00 | 0.00 | 0.00 | 53 | 1013.2 |
| 20260508085955 | 46 | 248 | 0.0 | 5.2 | 0.00 | 0.00 | 0.00 | 52 | 1013.1 |
| 20260508084934 | 47 | 248 | 0.0 | 1.7 | 0.00 | 0.00 | 0.00 | 51 | 1013.2 |
| 20260508084424 | 47 | 203 | 0.0 | 1.7 | 0.00 | 0.00 | 0.00 | 51 | 1013.3 |
| 20260508083914 | 47 | 203 | 0.0 | 1.7 | 0.00 | 0.00 | 0.00 | 52 | 1013.1 |
| 20260508083404 | 47 | 248 | 0.0 | 1.7 | 0.00 | 0.00 | 0.00 | 51 | 1013.2 |
| 20260508082343 | 47 | 248 | 0.0 | 1.7 | 0.00 | 0.00 | 0.00 | 50 | 1013.1 |
| 20260508081833 | 48 | 203 | 0.0 | 1.7 | 0.00 | 0.00 | 0.00 | 49 | 1012.9 |
| 20260508081324 | 48 | 180 | 0.0 | 1.7 | 0.00 | 0.00 | 0.00 | 48 | 1012.9 |
| 20260508080814 | 49 | 225 | 0.0 | 1.7 | 0.00 | 0.00 | 0.00 | 47 | 1012.9 |
| 20260508080303 | 49 | 248 | 0.0 | 3.5 | 0.00 | 0.00 | 0.00 | 48 | 1012.8 |
| 20260508075753 | 49 | 113 | 0.0 | 3.5 | 0.00 | 0.00 | 0.00 | 47 | 1012.7 |
| 20260508075244 | 48 | 248 | 0.0 | 3.5 | 0.00 | 0.00 | 0.00 | 50 | 1012.6 |
| 20260508074733 | 48 | 248 | 0.0 | 3.5 | 0.00 | 0.00 | 0.00 | 50 | 1012.6 |
| 20260508073713 | 47 | 248 | 0.0 | 5.2 | 0.00 | 0.00 | 0.00 | 50 | 1012.6 |
| 20260508073203 | 48 | 225 | 0.0 | 1.7 | 0.00 | 0.00 | 0.00 | 49 | 1012.5 |
| 20260508072652 | 48 | 180 | 0.0 | 1.7 | 0.00 | 0.00 | 0.00 | 49 | 1012.5 |
| 20260508071122 | 49 | 203 | 0.9 | 6.1 | 0.00 | 0.00 | 0.00 | 45 | 1012.6 |
| 20260508070612 | 49 | 90 | 0.9 | 7.0 | 0.00 | 0.00 | 0.00 | 45 | 1012.4 |
| 20260508065558 | 50 | 203 | 0.0 | 6.1 | 0.00 | 0.00 | 0.00 | 44 | 1012.5 |
| 20260508065041 | 50 | 248 | 0.0 | 6.1 | 0.00 | 0.00 | 0.00 | 44 | 1012.3 |
| 20260508064531 | 50 | 225 | 0.9 | 7.0 | 0.00 | 0.00 | 0.00 | 45 | 1012.4 |
| 20260508064021 | 50 | 225 | 0.0 | 7.0 | 0.00 | 0.00 | 0.00 | 46 | 1012.3 |
| 20260508063511 | 49 | 225 | 0.9 | 5.2 | 0.00 | 0.00 | 0.00 | 47 | 1012.4 |
| 20260508063001 | 49 | 338 | 0.0 | 5.2 | 0.00 | 0.00 | 0.00 | 47 | 1012.4 |
| 20260508062451 | 49 | 203 | 0.9 | 5.2 | 0.00 | 0.00 | 0.00 | 47 | 1012.2 |
| 20260508061941 | 49 | 248 | 0.0 | 7.0 | 0.00 | 0.00 | 0.00 | 49 | 1012.3 |
| 20260508061432 | 49 | 225 | 0.9 | 7.0 | 0.00 | 0.00 | 0.00 | 49 | 1012.4 |
| 20260508060921 | 49 | 158 | 0.0 | 6.1 | 0.00 | 0.00 | 0.00 | 49 | 1012.4 |
| 20260508060410 | 49 | 203 | 0.0 | 1.7 | 0.00 | 0.00 | 0.00 | 49 | 1012.5 |
| 20260508055901 | 48 | 203 | 0.0 | 3.5 | 0.00 | 0.00 | 0.00 | 50 | 1012.6 |
| 20260508055351 | 49 | 225 | 0.0 | 3.5 | 0.00 | 0.00 | 0.00 | 50 | 1012.5 |
| 20260508054841 | 48 | 180 | 0.0 | 1.7 | 0.00 | 0.00 | 0.00 | 52 | 1012.4 |
| 20260508054331 | 47 | 158 | 0.0 | 1.7 | 0.00 | 0.00 | 0.00 | 53 | 1012.4 |
| 20260508053820 | 47 | 248 | 0.0 | 1.7 | 0.00 | 0.00 | 0.00 | 54 | 1012.3 |
| 20260508053310 | 47 | 203 | 0.0 | 3.5 | 0.00 | 0.00 | 0.00 | 54 | 1012.3 |
| 20260508052800 | 47 | 248 | 0.9 | 3.5 | 0.00 | 0.00 | 0.00 | 54 | 1012.0 |
| 20260508052249 | 47 | 248 | 0.0 | 7.0 | 0.00 | 0.00 | 0.00 | 54 | 1012.1 |
| 20260508051739 | 47 | 248 | 0.0 | 7.0 | 0.00 | 0.00 | 0.00 | 54 | 1012.3 |
| 20260508051229 | 48 | 180 | 0.0 | 3.5 | 0.00 | 0.00 | 0.00 | 52 | 1012.2 |
| 20260508050721 | 48 | 248 | 0.0 | 6.1 | 0.00 | 0.00 | 0.00 | 52 | 1012.2 |
| 20260508050209 | 49 | 158 | 0.0 | 7.8 | 0.00 | 0.00 | 0.00 | 50 | 1012.3 |
| 20260508044639 | 48 | 180 | 0.0 | 3.5 | 0.00 | 0.00 | 0.00 | 52 | 1012.4 |
| 20260508043619 | 47 | 248 | 0.0 | 1.7 | 0.00 | 0.00 | 0.00 | 56 | 1012.5 |
| 20260508043109 | 46 | 225 | 0.0 | 0.0 | 0.00 | 0.00 | 0.00 | 58 | 1012.6 |
| 20260508042558 | 46 | 225 | 0.0 | 0.0 | 0.00 | 0.00 | 0.00 | 58 | 1012.4 |
| 20260508042049 | 46 | 248 | 0.0 | 0.0 | 0.00 | 0.00 | 0.00 | 58 | 1012.4 |
| 20260508041538 | 45 | 248 | 0.0 | 0.0 | 0.00 | 0.00 | 0.00 | 61 | 1012.2 |
| 20260508041028 | 45 | 225 | 0.0 | 0.0 | 0.00 | 0.00 | 0.00 | 63 | 1012.2 |
| 20260508040017 | 45 | 225 | 0.0 | 0.0 | 0.00 | 0.00 | 0.00 | 62 | 1011.8 |
| 20260508035457 | 45 | 225 | 0.0 | 0.0 | 0.00 | 0.00 | 0.00 | 62 | 1011.9 |
| 20260508034947 | 45 | 225 | 0.0 | 0.0 | 0.00 | 0.00 | 0.00 | 61 | 1011.9 |
| 20260508034438 | 46 | 203 | 0.0 | 0.0 | 0.00 | 0.00 | 0.00 | 59 | 1011.7 |
| 20260508033927 | 46 | 203 | 0.0 | 0.0 | 0.00 | 0.00 | 0.00 | 60 | 1011.8 |
| 20260508033418 | 46 | 203 | 0.0 | 0.0 | 0.00 | 0.00 | 0.00 | 59 | 1011.8 |
| 20260508032907 | 47 | 203 | 0.0 | 0.0 | 0.00 | 0.00 | 0.00 | 57 | 1012.0 |
| 20260508032357 | 46 | 203 | 0.0 | 0.0 | 0.00 | 0.00 | 0.00 | 58 | 1012.0 |
| 20260508031847 | 46 | 180 | 0.0 | 0.0 | 0.00 | 0.00 | 0.00 | 59 | 1012.0 |
| 20260508031337 | 46 | 180 | 0.0 | 3.5 | 0.00 | 0.00 | 0.00 | 59 | 1012.1 |
| 20260508030827 | 46 | 225 | 0.0 | 3.5 | 0.00 | 0.00 | 0.00 | 59 | 1012.1 |
| 20260508030316 | 46 | 248 | 0.0 | 1.7 | 0.00 | 0.00 | 0.00 | 59 | 1012.2 |
| 20260508025258 | 46 | 293 | 0.0 | 1.7 | 0.00 | 0.00 | 0.00 | 59 | 1012.0 |
| 20260508024747 | 47 | 225 | 0.0 | 0.0 | 0.00 | 0.00 | 0.00 | 57 | 1011.7 |
| 20260508023726 | 47 | 270 | 0.0 | 0.0 | 0.00 | 0.00 | 0.00 | 57 | 1011.5 |
| 20260508023216 | 46 | 293 | 0.0 | 0.0 | 0.00 | 0.00 | 0.00 | 59 | 1011.3 |
| 20260508022705 | 45 | 293 | 0.0 | 0.0 | 0.00 | 0.00 | 0.00 | 64 | 1011.6 |
| 20260508022156 | 44 | 315 | 0.0 | 0.0 | 0.00 | 0.00 | 0.00 | 65 | 1011.5 |
| 20260508021135 | 42 | 248 | 0.0 | 0.0 | 0.00 | 0.00 | 0.00 | 69 | 1011.2 |
| 20260508020115 | 39 | 315 | 0.0 | 0.0 | 0.00 | 0.00 | 0.00 | 78 | 1011.1 |
| 20260508015605 | 39 | 293 | 0.0 | 0.0 | 0.00 | 0.00 | 0.00 | 75 | 1011.0 |
| 20260508015056 | 42 | 45 | 0.0 | 0.0 | 0.00 | 0.00 | 0.00 | 71 | 1010.3 |
| 20260508013525 | 42 | 0 | 0.0 | 0.0 | 0.00 | 0.00 | 0.00 | 70 | 1010.4 |
| 20260508013015 | 42 | 0 | 0.0 | 0.0 | 0.00 | 0.00 | 0.00 | 69 | 1010.6 |
| 20260508011954 | 45 | 270 | 0.0 | 0.0 | 0.00 | 0.00 | 0.00 | 64 | 1010.4 |
| 20260508011445 | 46 | 248 | 0.0 | 0.0 | 0.00 | 0.00 | 0.00 | 59 | 1010.6 |
| 20260508010934 | 47 | 225 | 0.0 | 0.0 | 0.00 | 0.00 | 0.00 | 56 | 1010.8 |
| 20260508010424 | 47 | 225 | 0.0 | 0.0 | 0.00 | 0.00 | 0.00 | 57 | 1010.9 |
| 20260508005915 | 48 | 225 | 0.0 | 0.0 | 0.00 | 0.00 | 0.00 | 55 | 1010.8 |
| 20260508005404 | 48 | 225 | 0.0 | 0.0 | 0.00 | 0.00 | 0.00 | 54 | 1011.0 |
| 20260508004929 | 48 | 225 | 0.0 | 0.0 | 0.00 | 0.00 | 0.00 | 55 | 1010.9 |
| 20260508004346 | 48 | 225 | 0.0 | 0.0 | 0.00 | 0.00 | 0.00 | 55 | 1011.1 |
| 20260508003834 | 48 | 225 | 0.0 | 0.0 | 0.00 | 0.00 | 0.00 | 55 | 1010.5 |
| 20260508003324 | 48 | 225 | 0.0 | 0.0 | 0.00 | 0.00 | 0.00 | 55 | 1010.6 |
| 20260508002813 | 47 | 225 | 0.0 | 0.0 | 0.00 | 0.00 | 0.00 | 59 | 1010.8 |
| 20260508002306 | 46 | 225 | 0.0 | 0.0 | 0.00 | 0.00 | 0.00 | 65 | 1010.6 |
| 20260508001753 | 47 | 225 | 0.0 | 0.0 | 0.00 | 0.00 | 0.00 | 63 | 1010.6 |
| 20260508001242 | 47 | 225 | 0.0 | 0.0 | 0.00 | 0.00 | 0.00 | 60 | 1010.8 |